sensor_id;sensor_type;location;lat;lon;timestamp;pressure;altitude;pressure_sealevel;temperature
63220;BMP180;49320;52.512;13.448;2023-01-16T00:02:24;99547.00;;;12.10
63220;BMP180;49320;52.512;13.448;2023-01-16T00:04:51;99544.00;;;12.10
63220;BMP180;49320;52.512;13.448;2023-01-16T00:07:18;99551.00;;;12.10
63220;BMP180;49320;52.512;13.448;2023-01-16T00:09:44;99541.00;;;12.10
63220;BMP180;49320;52.512;13.448;2023-01-16T00:12:11;99539.00;;;12.20
63220;BMP180;49320;52.512;13.448;2023-01-16T00:14:38;99529.00;;;12.20
63220;BMP180;49320;52.512;13.448;2023-01-16T00:17:05;99548.00;;;12.30
63220;BMP180;49320;52.512;13.448;2023-01-16T00:19:34;99535.00;;;12.30
63220;BMP180;49320;52.512;13.448;2023-01-16T00:22:00;99538.00;;;12.40
63220;BMP180;49320;52.512;13.448;2023-01-16T00:24:27;99551.00;;;12.40
63220;BMP180;49320;52.512;13.448;2023-01-16T00:26:54;99534.00;;;12.40
63220;BMP180;49320;52.512;13.448;2023-01-16T00:29:21;99550.00;;;12.50
63220;BMP180;49320;52.512;13.448;2023-01-16T00:31:48;99541.00;;;12.50
63220;BMP180;49320;52.512;13.448;2023-01-16T00:34:15;99538.00;;;12.60
63220;BMP180;49320;52.512;13.448;2023-01-16T00:36:42;99531.00;;;12.60
63220;BMP180;49320;52.512;13.448;2023-01-16T00:39:09;99543.00;;;12.60
63220;BMP180;49320;52.512;13.448;2023-01-16T00:41:36;99537.00;;;12.60
63220;BMP180;49320;52.512;13.448;2023-01-16T00:44:03;99540.00;;;12.70
63220;BMP180;49320;52.512;13.448;2023-01-16T00:46:29;99543.00;;;12.70
63220;BMP180;49320;52.512;13.448;2023-01-16T00:48:56;99549.00;;;12.70
63220;BMP180;49320;52.512;13.448;2023-01-16T00:51:23;99551.00;;;12.70
63220;BMP180;49320;52.512;13.448;2023-01-16T00:53:50;99547.00;;;12.70
63220;BMP180;49320;52.512;13.448;2023-01-16T00:56:17;99554.00;;;12.80
63220;BMP180;49320;52.512;13.448;2023-01-16T00:58:44;99550.00;;;12.80
63220;BMP180;49320;52.512;13.448;2023-01-16T01:01:10;99547.00;;;12.80
63220;BMP180;49320;52.512;13.448;2023-01-16T01:03:40;99555.00;;;12.80
63220;BMP180;49320;52.512;13.448;2023-01-16T01:06:10;99554.00;;;12.90
63220;BMP180;49320;52.512;13.448;2023-01-16T01:08:40;99555.00;;;12.90
63220;BMP180;49320;52.512;13.448;2023-01-16T01:11:13;99554.00;;;12.90
63220;BMP180;49320;52.512;13.448;2023-01-16T01:13:42;99561.00;;;12.90
63220;BMP180;49320;52.512;13.448;2023-01-16T01:16:10;99554.00;;;12.90
63220;BMP180;49320;52.512;13.448;2023-01-16T01:18:38;99568.00;;;12.90
63220;BMP180;49320;52.512;13.448;2023-01-16T01:21:05;99550.00;;;12.90
63220;BMP180;49320;52.512;13.448;2023-01-16T01:23:32;99545.00;;;12.90
63220;BMP180;49320;52.512;13.448;2023-01-16T01:26:10;99546.00;;;12.90
63220;BMP180;49320;52.512;13.448;2023-01-16T01:28:37;99546.00;;;12.90
63220;BMP180;49320;52.512;13.448;2023-01-16T01:31:06;99538.00;;;12.80
63220;BMP180;49320;52.512;13.448;2023-01-16T01:33:34;99546.00;;;12.80
63220;BMP180;49320;52.512;13.448;2023-01-16T01:36:02;99544.00;;;12.70
63220;BMP180;49320;52.512;13.448;2023-01-16T01:38:29;99541.00;;;12.60
63220;BMP180;49320;52.512;13.448;2023-01-16T01:40:56;99543.00;;;12.60
63220;BMP180;49320;52.512;13.448;2023-01-16T01:43:47;99540.00;;;12.50
63220;BMP180;49320;52.512;13.448;2023-01-16T01:46:30;99544.00;;;12.40
63220;BMP180;49320;52.512;13.448;2023-01-16T01:49:22;99550.00;;;12.40
63220;BMP180;49320;52.512;13.448;2023-01-16T01:51:53;99537.00;;;12.30
63220;BMP180;49320;52.512;13.448;2023-01-16T01:54:27;99539.00;;;12.30
63220;BMP180;49320;52.512;13.448;2023-01-16T01:57:05;99536.00;;;12.20
63220;BMP180;49320;52.512;13.448;2023-01-16T01:59:40;99536.00;;;12.20
63220;BMP180;49320;52.512;13.448;2023-01-16T02:02:12;99532.00;;;12.20
63220;BMP180;49320;52.512;13.448;2023-01-16T02:04:43;99544.00;;;12.20
63220;BMP180;49320;52.512;13.448;2023-01-16T02:07:14;99537.00;;;12.20
63220;BMP180;49320;52.512;13.448;2023-01-16T02:09:42;99535.00;;;12.20
63220;BMP180;49320;52.512;13.448;2023-01-16T02:12:13;99543.00;;;12.20
63220;BMP180;49320;52.512;13.448;2023-01-16T02:14:45;99534.00;;;12.20
63220;BMP180;49320;52.512;13.448;2023-01-16T02:17:19;99532.00;;;12.30
63220;BMP180;49320;52.512;13.448;2023-01-16T02:20:21;99530.00;;;12.30
63220;BMP180;49320;52.512;13.448;2023-01-16T02:23:44;99533.00;;;12.40
63220;BMP180;49320;52.512;13.448;2023-01-16T02:26:53;99534.00;;;12.40
63220;BMP180;49320;52.512;13.448;2023-01-16T02:29:53;99538.00;;;12.40
63220;BMP180;49320;52.512;13.448;2023-01-16T02:35:28;99528.00;;;12.40
63220;BMP180;49320;52.512;13.448;2023-01-16T02:39:03;99523.00;;;12.40
63220;BMP180;49320;52.512;13.448;2023-01-16T02:44:52;99514.00;;;12.40
63220;BMP180;49320;52.512;13.448;2023-01-16T02:47:30;99498.00;;;12.40
63220;BMP180;49320;52.512;13.448;2023-01-16T02:50:17;99500.00;;;12.40
63220;BMP180;49320;52.512;13.448;2023-01-16T02:52:54;99507.00;;;12.40
63220;BMP180;49320;52.512;13.448;2023-01-16T02:55:34;99500.00;;;12.40
63220;BMP180;49320;52.512;13.448;2023-01-16T02:58:04;99498.00;;;12.40
63220;BMP180;49320;52.512;13.448;2023-01-16T03:00:34;99488.00;;;12.40
63220;BMP180;49320;52.512;13.448;2023-01-16T03:03:01;99484.00;;;12.40
63220;BMP180;49320;52.512;13.448;2023-01-16T03:05:42;99485.00;;;12.40
63220;BMP180;49320;52.512;13.448;2023-01-16T03:08:28;99474.00;;;12.40
63220;BMP180;49320;52.512;13.448;2023-01-16T03:11:14;99470.00;;;12.40
63220;BMP180;49320;52.512;13.448;2023-01-16T03:17:28;99471.00;;;12.40
63220;BMP180;49320;52.512;13.448;2023-01-16T03:20:18;99480.00;;;12.40
63220;BMP180;49320;52.512;13.448;2023-01-16T03:23:01;99471.00;;;12.40
63220;BMP180;49320;52.512;13.448;2023-01-16T03:25:45;99470.00;;;12.40
63220;BMP180;49320;52.512;13.448;2023-01-16T03:31:30;99468.00;;;12.40
63220;BMP180;49320;52.512;13.448;2023-01-16T03:37:02;99452.00;;;12.40
63220;BMP180;49320;52.512;13.448;2023-01-16T03:39:45;99447.00;;;12.40
63220;BMP180;49320;52.512;13.448;2023-01-16T03:42:25;99435.00;;;12.40
63220;BMP180;49320;52.512;13.448;2023-01-16T03:45:06;99438.00;;;12.40
63220;BMP180;49320;52.512;13.448;2023-01-16T03:47:42;99441.00;;;12.40
63220;BMP180;49320;52.512;13.448;2023-01-16T03:50:14;99433.00;;;12.30
63220;BMP180;49320;52.512;13.448;2023-01-16T03:52:51;99445.00;;;12.30
63220;BMP180;49320;52.512;13.448;2023-01-16T03:55:35;99442.00;;;12.30
63220;BMP180;49320;52.512;13.448;2023-01-16T03:58:13;99441.00;;;12.30
63220;BMP180;49320;52.512;13.448;2023-01-16T04:01:24;99426.00;;;12.30
63220;BMP180;49320;52.512;13.448;2023-01-16T04:07:04;99420.00;;;12.20
63220;BMP180;49320;52.512;13.448;2023-01-16T04:09:49;99410.00;;;12.20
63220;BMP180;49320;52.512;13.448;2023-01-16T04:12:22;99413.00;;;12.20
63220;BMP180;49320;52.512;13.448;2023-01-16T04:14:58;99399.00;;;12.20
63220;BMP180;49320;52.512;13.448;2023-01-16T04:17:27;99392.00;;;12.30
63220;BMP180;49320;52.512;13.448;2023-01-16T04:19:55;99397.00;;;12.20
63220;BMP180;49320;52.512;13.448;2023-01-16T04:22:26;99400.00;;;12.20
63220;BMP180;49320;52.512;13.448;2023-01-16T04:24:57;99379.00;;;12.20
63220;BMP180;49320;52.512;13.448;2023-01-16T04:27:26;99384.00;;;12.10
63220;BMP180;49320;52.512;13.448;2023-01-16T04:29:53;99384.00;;;12.10
63220;BMP180;49320;52.512;13.448;2023-01-16T04:32:19;99374.00;;;12.10
63220;BMP180;49320;52.512;13.448;2023-01-16T04:34:47;99377.00;;;12.00
63220;BMP180;49320;52.512;13.448;2023-01-16T04:37:17;99380.00;;;12.00
63220;BMP180;49320;52.512;13.448;2023-01-16T04:39:44;99361.00;;;11.90
63220;BMP180;49320;52.512;13.448;2023-01-16T04:42:13;99369.00;;;11.90
63220;BMP180;49320;52.512;13.448;2023-01-16T04:44:40;99359.00;;;11.80
63220;BMP180;49320;52.512;13.448;2023-01-16T04:47:07;99355.00;;;11.80
63220;BMP180;49320;52.512;13.448;2023-01-16T04:49:34;99356.00;;;11.80
63220;BMP180;49320;52.512;13.448;2023-01-16T04:52:01;99350.00;;;11.70
63220;BMP180;49320;52.512;13.448;2023-01-16T04:54:28;99355.00;;;11.70
63220;BMP180;49320;52.512;13.448;2023-01-16T04:56:54;99348.00;;;11.60
63220;BMP180;49320;52.512;13.448;2023-01-16T04:59:21;99342.00;;;11.60
63220;BMP180;49320;52.512;13.448;2023-01-16T05:01:49;99341.00;;;11.60
63220;BMP180;49320;52.512;13.448;2023-01-16T05:04:16;99348.00;;;11.60
63220;BMP180;49320;52.512;13.448;2023-01-16T05:06:44;99344.00;;;11.60
63220;BMP180;49320;52.512;13.448;2023-01-16T05:09:11;99348.00;;;11.50
63220;BMP180;49320;52.512;13.448;2023-01-16T05:11:38;99342.00;;;11.50
63220;BMP180;49320;52.512;13.448;2023-01-16T05:14:05;99335.00;;;11.50
63220;BMP180;49320;52.512;13.448;2023-01-16T05:16:35;99336.00;;;11.50
63220;BMP180;49320;52.512;13.448;2023-01-16T05:19:03;99329.00;;;11.50
63220;BMP180;49320;52.512;13.448;2023-01-16T05:21:30;99333.00;;;11.50
63220;BMP180;49320;52.512;13.448;2023-01-16T05:23:57;99334.00;;;11.50
63220;BMP180;49320;52.512;13.448;2023-01-16T05:26:24;99328.00;;;11.50
63220;BMP180;49320;52.512;13.448;2023-01-16T05:28:52;99324.00;;;11.50
63220;BMP180;49320;52.512;13.448;2023-01-16T05:31:19;99324.00;;;11.50
63220;BMP180;49320;52.512;13.448;2023-01-16T05:33:46;99317.00;;;11.50
63220;BMP180;49320;52.512;13.448;2023-01-16T05:36:13;99310.00;;;11.60
63220;BMP180;49320;52.512;13.448;2023-01-16T05:38:39;99300.00;;;11.60
63220;BMP180;49320;52.512;13.448;2023-01-16T05:41:06;99311.00;;;11.60
63220;BMP180;49320;52.512;13.448;2023-01-16T05:43:33;99322.00;;;11.60
63220;BMP180;49320;52.512;13.448;2023-01-16T05:46:00;99325.00;;;11.60
63220;BMP180;49320;52.512;13.448;2023-01-16T05:48:27;99322.00;;;11.60
63220;BMP180;49320;52.512;13.448;2023-01-16T05:50:54;99308.00;;;11.60
63220;BMP180;49320;52.512;13.448;2023-01-16T05:53:21;99307.00;;;11.60
63220;BMP180;49320;52.512;13.448;2023-01-16T05:55:48;99307.00;;;11.60
63220;BMP180;49320;52.512;13.448;2023-01-16T05:58:16;99306.00;;;11.70
63220;BMP180;49320;52.512;13.448;2023-01-16T06:00:43;99306.00;;;11.70
63220;BMP180;49320;52.512;13.448;2023-01-16T06:03:10;99298.00;;;11.70
63220;BMP180;49320;52.512;13.448;2023-01-16T06:05:37;99295.00;;;11.70
63220;BMP180;49320;52.512;13.448;2023-01-16T06:08:04;99304.00;;;11.70
63220;BMP180;49320;52.512;13.448;2023-01-16T06:10:32;99291.00;;;11.70
63220;BMP180;49320;52.512;13.448;2023-01-16T06:13:01;99290.00;;;11.70
63220;BMP180;49320;52.512;13.448;2023-01-16T06:15:29;99287.00;;;11.70
63220;BMP180;49320;52.512;13.448;2023-01-16T06:17:55;99289.00;;;11.70
63220;BMP180;49320;52.512;13.448;2023-01-16T06:20:23;99283.00;;;11.60
63220;BMP180;49320;52.512;13.448;2023-01-16T06:22:50;99281.00;;;11.60
63220;BMP180;49320;52.512;13.448;2023-01-16T06:25:16;99280.00;;;11.60
63220;BMP180;49320;52.512;13.448;2023-01-16T06:27:50;99288.00;;;11.60
63220;BMP180;49320;52.512;13.448;2023-01-16T06:30:18;99282.00;;;11.70
63220;BMP180;49320;52.512;13.448;2023-01-16T06:32:49;99280.00;;;11.70
63220;BMP180;49320;52.512;13.448;2023-01-16T06:35:17;99277.00;;;11.70
63220;BMP180;49320;52.512;13.448;2023-01-16T06:37:44;99266.00;;;11.70
63220;BMP180;49320;52.512;13.448;2023-01-16T06:40:11;99262.00;;;11.70
63220;BMP180;49320;52.512;13.448;2023-01-16T06:42:38;99267.00;;;11.80
63220;BMP180;49320;52.512;13.448;2023-01-16T06:45:06;99269.00;;;11.80
63220;BMP180;49320;52.512;13.448;2023-01-16T06:47:33;99271.00;;;11.80
63220;BMP180;49320;52.512;13.448;2023-01-16T06:50:00;99265.00;;;11.80
63220;BMP180;49320;52.512;13.448;2023-01-16T06:52:27;99262.00;;;11.80
63220;BMP180;49320;52.512;13.448;2023-01-16T06:54:53;99260.00;;;11.80
63220;BMP180;49320;52.512;13.448;2023-01-16T06:57:20;99262.00;;;11.80
63220;BMP180;49320;52.512;13.448;2023-01-16T06:59:47;99264.00;;;11.80
63220;BMP180;49320;52.512;13.448;2023-01-16T07:02:17;99264.00;;;11.80
63220;BMP180;49320;52.512;13.448;2023-01-16T07:04:43;99258.00;;;11.80
63220;BMP180;49320;52.512;13.448;2023-01-16T07:07:11;99265.00;;;11.90
63220;BMP180;49320;52.512;13.448;2023-01-16T07:09:38;99259.00;;;11.90
63220;BMP180;49320;52.512;13.448;2023-01-16T07:12:04;99249.00;;;11.90
63220;BMP180;49320;52.512;13.448;2023-01-16T07:14:31;99250.00;;;11.90
63220;BMP180;49320;52.512;13.448;2023-01-16T07:17:16;99251.00;;;12.00
63220;BMP180;49320;52.512;13.448;2023-01-16T07:20:02;99258.00;;;12.00
63220;BMP180;49320;52.512;13.448;2023-01-16T07:22:48;99257.00;;;12.00
63220;BMP180;49320;52.512;13.448;2023-01-16T07:25:30;99255.00;;;12.00
63220;BMP180;49320;52.512;13.448;2023-01-16T07:28:00;99250.00;;;12.00
63220;BMP180;49320;52.512;13.448;2023-01-16T07:30:27;99239.00;;;12.00
63220;BMP180;49320;52.512;13.448;2023-01-16T07:32:54;99242.00;;;12.00
63220;BMP180;49320;52.512;13.448;2023-01-16T07:35:21;99250.00;;;12.00
63220;BMP180;49320;52.512;13.448;2023-01-16T07:37:48;99239.00;;;12.00
63220;BMP180;49320;52.512;13.448;2023-01-16T07:40:15;99232.00;;;12.00
63220;BMP180;49320;52.512;13.448;2023-01-16T07:42:42;99236.00;;;12.00
63220;BMP180;49320;52.512;13.448;2023-01-16T07:45:09;99234.00;;;12.00
63220;BMP180;49320;52.512;13.448;2023-01-16T07:47:36;99232.00;;;12.00
63220;BMP180;49320;52.512;13.448;2023-01-16T07:50:03;99226.00;;;12.00
63220;BMP180;49320;52.512;13.448;2023-01-16T07:52:30;99229.00;;;12.00
63220;BMP180;49320;52.512;13.448;2023-01-16T07:54:57;99216.00;;;12.00
63220;BMP180;49320;52.512;13.448;2023-01-16T07:57:23;99210.00;;;12.00
63220;BMP180;49320;52.512;13.448;2023-01-16T07:59:52;99222.00;;;11.90
63220;BMP180;49320;52.512;13.448;2023-01-16T08:02:20;99205.00;;;11.90
63220;BMP180;49320;52.512;13.448;2023-01-16T08:04:47;99203.00;;;11.90
63220;BMP180;49320;52.512;13.448;2023-01-16T08:07:13;99207.00;;;12.00
63220;BMP180;49320;52.512;13.448;2023-01-16T08:09:40;99195.00;;;12.00
63220;BMP180;49320;52.512;13.448;2023-01-16T08:12:07;99199.00;;;12.00
63220;BMP180;49320;52.512;13.448;2023-01-16T08:14:34;99200.00;;;12.00
63220;BMP180;49320;52.512;13.448;2023-01-16T08:17:01;99190.00;;;12.10
63220;BMP180;49320;52.512;13.448;2023-01-16T08:19:28;99192.00;;;12.10
63220;BMP180;49320;52.512;13.448;2023-01-16T08:21:55;99179.00;;;12.10
63220;BMP180;49320;52.512;13.448;2023-01-16T08:24:21;99178.00;;;12.20
63220;BMP180;49320;52.512;13.448;2023-01-16T08:26:54;99172.00;;;12.20
63220;BMP180;49320;52.512;13.448;2023-01-16T08:29:21;99167.00;;;12.20
63220;BMP180;49320;52.512;13.448;2023-01-16T08:31:48;99167.00;;;12.30
63220;BMP180;49320;52.512;13.448;2023-01-16T08:34:16;99166.00;;;12.30
63220;BMP180;49320;52.512;13.448;2023-01-16T08:36:43;99158.00;;;12.40
63220;BMP180;49320;52.512;13.448;2023-01-16T08:39:10;99152.00;;;12.40
63220;BMP180;49320;52.512;13.448;2023-01-16T08:41:37;99154.00;;;12.40
63220;BMP180;49320;52.512;13.448;2023-01-16T08:44:23;99149.00;;;12.40
63220;BMP180;49320;52.512;13.448;2023-01-16T08:47:13;99147.00;;;12.40
63220;BMP180;49320;52.512;13.448;2023-01-16T08:49:59;99137.00;;;12.40
63220;BMP180;49320;52.512;13.448;2023-01-16T08:52:45;99119.00;;;12.40
63220;BMP180;49320;52.512;13.448;2023-01-16T08:55:12;99122.00;;;12.40
63220;BMP180;49320;52.512;13.448;2023-01-16T08:57:39;99124.00;;;12.40
63220;BMP180;49320;52.512;13.448;2023-01-16T09:00:07;99116.00;;;12.40
63220;BMP180;49320;52.512;13.448;2023-01-16T09:02:34;99106.00;;;12.40
63220;BMP180;49320;52.512;13.448;2023-01-16T09:05:03;99099.00;;;12.40
63220;BMP180;49320;52.512;13.448;2023-01-16T09:07:30;99089.00;;;12.40
63220;BMP180;49320;52.512;13.448;2023-01-16T09:09:57;99093.00;;;12.40
63220;BMP180;49320;52.512;13.448;2023-01-16T09:12:24;99085.00;;;12.40
63220;BMP180;49320;52.512;13.448;2023-01-16T09:15:09;99088.00;;;12.40
63220;BMP180;49320;52.512;13.448;2023-01-16T09:17:36;99082.00;;;12.30
63220;BMP180;49320;52.512;13.448;2023-01-16T09:20:04;99084.00;;;12.30
63220;BMP180;49320;52.512;13.448;2023-01-16T09:22:31;99077.00;;;12.30
63220;BMP180;49320;52.512;13.448;2023-01-16T09:24:59;99072.00;;;12.30
63220;BMP180;49320;52.512;13.448;2023-01-16T09:27:26;99076.00;;;12.30
63220;BMP180;49320;52.512;13.448;2023-01-16T09:29:53;99073.00;;;12.30
63220;BMP180;49320;52.512;13.448;2023-01-16T09:32:20;99068.00;;;12.30
63220;BMP180;49320;52.512;13.448;2023-01-16T09:34:48;99071.00;;;12.40
63220;BMP180;49320;52.512;13.448;2023-01-16T09:37:15;99064.00;;;12.30
63220;BMP180;49320;52.512;13.448;2023-01-16T09:39:42;99063.00;;;12.40
63220;BMP180;49320;52.512;13.448;2023-01-16T09:42:56;99057.00;;;12.40
63220;BMP180;49320;52.512;13.448;2023-01-16T09:45:45;99053.00;;;12.40
63220;BMP180;49320;52.512;13.448;2023-01-16T09:48:38;99058.00;;;12.40
63220;BMP180;49320;52.512;13.448;2023-01-16T09:51:14;99039.00;;;12.40
63220;BMP180;49320;52.512;13.448;2023-01-16T09:53:52;99033.00;;;12.40
63220;BMP180;49320;52.512;13.448;2023-01-16T09:56:47;99020.00;;;12.30
63220;BMP180;49320;52.512;13.448;2023-01-16T09:59:38;99029.00;;;12.40
63220;BMP180;49320;52.512;13.448;2023-01-16T10:02:24;99021.00;;;12.40
63220;BMP180;49320;52.512;13.448;2023-01-16T10:04:54;99017.00;;;12.40
63220;BMP180;49320;52.512;13.448;2023-01-16T10:13:12;99000.00;;;12.50
63220;BMP180;49320;52.512;13.448;2023-01-16T10:16:29;98987.00;;;12.50
63220;BMP180;49320;52.512;13.448;2023-01-16T10:22:11;98968.00;;;12.60
63220;BMP180;49320;52.512;13.448;2023-01-16T10:24:50;98957.00;;;12.70
63220;BMP180;49320;52.512;13.448;2023-01-16T10:30:31;98961.00;;;12.80
63220;BMP180;49320;52.512;13.448;2023-01-16T10:33:41;98946.00;;;12.90
63220;BMP180;49320;52.512;13.448;2023-01-16T10:36:22;98936.00;;;12.90
63220;BMP180;49320;52.512;13.448;2023-01-16T10:38:56;98942.00;;;13.00
63220;BMP180;49320;52.512;13.448;2023-01-16T10:41:31;98930.00;;;13.00
63220;BMP180;49320;52.512;13.448;2023-01-16T10:44:39;98923.00;;;13.10
63220;BMP180;49320;52.512;13.448;2023-01-16T10:47:34;98926.00;;;13.10
63220;BMP180;49320;52.512;13.448;2023-01-16T10:50:23;98916.00;;;13.20
63220;BMP180;49320;52.512;13.448;2023-01-16T10:53:05;98909.00;;;13.20
63220;BMP180;49320;52.512;13.448;2023-01-16T10:55:35;98915.00;;;13.30
63220;BMP180;49320;52.512;13.448;2023-01-16T10:58:35;98894.00;;;13.30
63220;BMP180;49320;52.512;13.448;2023-01-16T11:03:50;98893.00;;;13.40
63220;BMP180;49320;52.512;13.448;2023-01-16T11:06:22;98879.00;;;13.50
63220;BMP180;49320;52.512;13.448;2023-01-16T11:08:54;98880.00;;;13.50
63220;BMP180;49320;52.512;13.448;2023-01-16T11:11:22;98865.00;;;13.50
63220;BMP180;49320;52.512;13.448;2023-01-16T11:14:24;98861.00;;;13.60
63220;BMP180;49320;52.512;13.448;2023-01-16T11:17:28;98849.00;;;13.60
63220;BMP180;49320;52.512;13.448;2023-01-16T11:20:35;98840.00;;;13.70
63220;BMP180;49320;52.512;13.448;2023-01-16T11:23:21;98844.00;;;13.80
63220;BMP180;49320;52.512;13.448;2023-01-16T11:25:52;98832.00;;;13.80
63220;BMP180;49320;52.512;13.448;2023-01-16T11:28:27;98831.00;;;13.90
63220;BMP180;49320;52.512;13.448;2023-01-16T11:31:23;98825.00;;;13.90
63220;BMP180;49320;52.512;13.448;2023-01-16T11:33:58;98809.00;;;13.90
63220;BMP180;49320;52.512;13.448;2023-01-16T11:36:38;98806.00;;;14.00
63220;BMP180;49320;52.512;13.448;2023-01-16T11:39:06;98792.00;;;14.00
63220;BMP180;49320;52.512;13.448;2023-01-16T11:41:48;98784.00;;;14.10
63220;BMP180;49320;52.512;13.448;2023-01-16T11:44:23;98778.00;;;14.10
63220;BMP180;49320;52.512;13.448;2023-01-16T11:47:21;98771.00;;;14.20
63220;BMP180;49320;52.512;13.448;2023-01-16T11:49:53;98768.00;;;14.20
63220;BMP180;49320;52.512;13.448;2023-01-16T11:52:23;98757.00;;;14.20
63220;BMP180;49320;52.512;13.448;2023-01-16T11:55:03;98745.00;;;14.20
63220;BMP180;49320;52.512;13.448;2023-01-16T11:58:04;98760.00;;;14.20
63220;BMP180;49320;52.512;13.448;2023-01-16T12:00:57;98748.00;;;14.20
63220;BMP180;49320;52.512;13.448;2023-01-16T12:04:01;98732.00;;;14.30
63220;BMP180;49320;52.512;13.448;2023-01-16T12:06:53;98724.00;;;14.30
63220;BMP180;49320;52.512;13.448;2023-01-16T12:10:29;98727.00;;;14.30
63220;BMP180;49320;52.512;13.448;2023-01-16T12:13:09;98720.00;;;14.30
63220;BMP180;49320;52.512;13.448;2023-01-16T12:19:55;98707.00;;;14.40
63220;BMP180;49320;52.512;13.448;2023-01-16T12:22:46;98692.00;;;14.40
63220;BMP180;49320;52.512;13.448;2023-01-16T12:28:37;98685.00;;;14.40
63220;BMP180;49320;52.512;13.448;2023-01-16T12:31:52;98680.00;;;14.50
63220;BMP180;49320;52.512;13.448;2023-01-16T12:34:45;98677.00;;;14.50
63220;BMP180;49320;52.512;13.448;2023-01-16T12:37:46;98659.00;;;14.50
63220;BMP180;49320;52.512;13.448;2023-01-16T12:40:57;98658.00;;;14.60
63220;BMP180;49320;52.512;13.448;2023-01-16T12:44:09;98654.00;;;14.60
63220;BMP180;49320;52.512;13.448;2023-01-16T12:49:34;98641.00;;;14.60
63220;BMP180;49320;52.512;13.448;2023-01-16T12:55:41;98624.00;;;14.70
63220;BMP180;49320;52.512;13.448;2023-01-16T12:58:22;98613.00;;;14.70
63220;BMP180;49320;52.512;13.448;2023-01-16T13:03:53;98597.00;;;14.80
63220;BMP180;49320;52.512;13.448;2023-01-16T13:06:52;98581.00;;;14.90
63220;BMP180;49320;52.512;13.448;2023-01-16T13:09:47;98580.00;;;14.90
63220;BMP180;49320;52.512;13.448;2023-01-16T13:12:25;98578.00;;;14.90
63220;BMP180;49320;52.512;13.448;2023-01-16T13:15:24;98575.00;;;14.90
63220;BMP180;49320;52.512;13.448;2023-01-16T13:18:18;98565.00;;;14.90
63220;BMP180;49320;52.512;13.448;2023-01-16T13:20:51;98560.00;;;14.90
63220;BMP180;49320;52.512;13.448;2023-01-16T13:23:38;98561.00;;;15.00
63220;BMP180;49320;52.512;13.448;2023-01-16T13:26:11;98560.00;;;15.00
63220;BMP180;49320;52.512;13.448;2023-01-16T13:29:13;98563.00;;;15.00
63220;BMP180;49320;52.512;13.448;2023-01-16T13:32:06;98551.00;;;15.00
63220;BMP180;49320;52.512;13.448;2023-01-16T13:34:54;98541.00;;;15.00
63220;BMP180;49320;52.512;13.448;2023-01-16T13:38:05;98548.00;;;15.00
63220;BMP180;49320;52.512;13.448;2023-01-16T13:43:31;98526.00;;;14.90
63220;BMP180;49320;52.512;13.448;2023-01-16T13:46:19;98505.00;;;14.90
63220;BMP180;49320;52.512;13.448;2023-01-16T13:48:52;98510.00;;;14.90
63220;BMP180;49320;52.512;13.448;2023-01-16T13:51:22;98502.00;;;14.90
63220;BMP180;49320;52.512;13.448;2023-01-16T13:53:59;98490.00;;;14.90
63220;BMP180;49320;52.512;13.448;2023-01-16T13:56:30;98482.00;;;14.90
63220;BMP180;49320;52.512;13.448;2023-01-16T13:59:07;98478.00;;;14.90
63220;BMP180;49320;52.512;13.448;2023-01-16T14:06:45;98474.00;;;15.00
63220;BMP180;49320;52.512;13.448;2023-01-16T14:09:20;98482.00;;;15.00
63220;BMP180;49320;52.512;13.448;2023-01-16T14:17:59;98468.00;;;14.90
63220;BMP180;49320;52.512;13.448;2023-01-16T14:23:31;98448.00;;;14.80
63220;BMP180;49320;52.512;13.448;2023-01-16T14:26:45;98446.00;;;14.80
63220;BMP180;49320;52.512;13.448;2023-01-16T14:29:20;98446.00;;;14.70
63220;BMP180;49320;52.512;13.448;2023-01-16T14:32:02;98441.00;;;14.70
63220;BMP180;49320;52.512;13.448;2023-01-16T14:34:40;98439.00;;;14.70
63220;BMP180;49320;52.512;13.448;2023-01-16T14:37:32;98429.00;;;14.60
63220;BMP180;49320;52.512;13.448;2023-01-16T14:40:18;98431.00;;;14.60
63220;BMP180;49320;52.512;13.448;2023-01-16T14:42:53;98427.00;;;14.60
63220;BMP180;49320;52.512;13.448;2023-01-16T14:45:41;98423.00;;;14.50
63220;BMP180;49320;52.512;13.448;2023-01-16T14:48:36;98419.00;;;14.50
63220;BMP180;49320;52.512;13.448;2023-01-16T14:54:33;98391.00;;;14.40
63220;BMP180;49320;52.512;13.448;2023-01-16T14:57:23;98394.00;;;14.40
63220;BMP180;49320;52.512;13.448;2023-01-16T15:00:04;98386.00;;;14.40
63220;BMP180;49320;52.512;13.448;2023-01-16T15:02:38;98413.00;;;14.30
63220;BMP180;49320;52.512;13.448;2023-01-16T15:05:12;98408.00;;;14.30
63220;BMP180;49320;52.512;13.448;2023-01-16T15:07:59;98410.00;;;14.30
63220;BMP180;49320;52.512;13.448;2023-01-16T15:10:39;98402.00;;;14.30
63220;BMP180;49320;52.512;13.448;2023-01-16T15:15:50;98397.00;;;14.20
63220;BMP180;49320;52.512;13.448;2023-01-16T15:18:19;98391.00;;;14.20
63220;BMP180;49320;52.512;13.448;2023-01-16T15:21:34;98394.00;;;14.10
63220;BMP180;49320;52.512;13.448;2023-01-16T15:24:23;98394.00;;;14.00
63220;BMP180;49320;52.512;13.448;2023-01-16T15:27:15;98392.00;;;14.00
63220;BMP180;49320;52.512;13.448;2023-01-16T15:30:09;98402.00;;;13.90
63220;BMP180;49320;52.512;13.448;2023-01-16T15:32:59;98385.00;;;13.90
63220;BMP180;49320;52.512;13.448;2023-01-16T15:35:57;98384.00;;;13.80
63220;BMP180;49320;52.512;13.448;2023-01-16T15:38:24;98378.00;;;13.80
63220;BMP180;49320;52.512;13.448;2023-01-16T15:40:52;98382.00;;;13.80
63220;BMP180;49320;52.512;13.448;2023-01-16T15:43:21;98391.00;;;13.80
63220;BMP180;49320;52.512;13.448;2023-01-16T15:47:04;98377.00;;;13.80
63220;BMP180;49320;52.512;13.448;2023-01-16T15:50:18;98380.00;;;13.70
63220;BMP180;49320;52.512;13.448;2023-01-16T15:52:47;98367.00;;;13.70
63220;BMP180;49320;52.512;13.448;2023-01-16T15:55:40;98375.00;;;13.70
63220;BMP180;49320;52.512;13.448;2023-01-16T15:58:15;98360.00;;;13.70
63220;BMP180;49320;52.512;13.448;2023-01-16T16:00:43;98359.00;;;13.70
63220;BMP180;49320;52.512;13.448;2023-01-16T16:03:16;98350.00;;;13.70